sensor_id;sensor_type;location;lat;lon;timestamp;temperature;humidity
10249;DHT22;5169;50.560;9.714;2023-07-24T00:02:24;18.60;99.90
10249;DHT22;5169;50.560;9.714;2023-07-24T00:04:49;18.50;99.90
10249;DHT22;5169;50.560;9.714;2023-07-24T00:07:15;18.50;99.90
10249;DHT22;5169;50.560;9.714;2023-07-24T00:09:41;18.60;99.90
10249;DHT22;5169;50.560;9.714;2023-07-24T00:12:07;18.70;99.90
10249;DHT22;5169;50.560;9.714;2023-07-24T00:14:32;18.60;99.90
10249;DHT22;5169;50.560;9.714;2023-07-24T00:16:58;18.50;99.90
10249;DHT22;5169;50.560;9.714;2023-07-24T00:19:26;18.50;99.90
10249;DHT22;5169;50.560;9.714;2023-07-24T00:21:56;18.40;99.90
10249;DHT22;5169;50.560;9.714;2023-07-24T00:24:24;18.30;99.90
10249;DHT22;5169;50.560;9.714;2023-07-24T00:26:49;18.40;99.90
10249;DHT22;5169;50.560;9.714;2023-07-24T00:29:15;18.40;99.90
10249;DHT22;5169;50.560;9.714;2023-07-24T00:31:40;18.40;99.90
10249;DHT22;5169;50.560;9.714;2023-07-24T00:34:06;18.50;99.90
10249;DHT22;5169;50.560;9.714;2023-07-24T00:36:34;18.50;99.90
10249;DHT22;5169;50.560;9.714;2023-07-24T00:38:59;18.40;99.90
10249;DHT22;5169;50.560;9.714;2023-07-24T00:41:25;18.40;99.90
10249;DHT22;5169;50.560;9.714;2023-07-24T00:43:50;18.50;99.90
10249;DHT22;5169;50.560;9.714;2023-07-24T00:46:16;18.50;99.90
10249;DHT22;5169;50.560;9.714;2023-07-24T00:48:42;18.50;99.90
10249;DHT22;5169;50.560;9.714;2023-07-24T00:51:09;18.40;99.90
10249;DHT22;5169;50.560;9.714;2023-07-24T00:53:35;18.40;99.90
10249;DHT22;5169;50.560;9.714;2023-07-24T00:56:01;18.40;99.90
10249;DHT22;5169;50.560;9.714;2023-07-24T00:58:28;18.50;99.90
10249;DHT22;5169;50.560;9.714;2023-07-24T01:00:53;18.50;99.90
10249;DHT22;5169;50.560;9.714;2023-07-24T01:03:23;18.50;99.90
10249;DHT22;5169;50.560;9.714;2023-07-24T01:05:54;18.60;99.90
10249;DHT22;5169;50.560;9.714;2023-07-24T01:08:22;18.60;99.90
10249;DHT22;5169;50.560;9.714;2023-07-24T01:10:48;18.50;99.90
10249;DHT22;5169;50.560;9.714;2023-07-24T01:13:20;18.30;99.90
10249;DHT22;5169;50.560;9.714;2023-07-24T01:16:14;18.20;99.90
10249;DHT22;5169;50.560;9.714;2023-07-24T01:18:41;18.10;99.90
10249;DHT22;5169;50.560;9.714;2023-07-24T01:21:11;18.10;99.90
10249;DHT22;5169;50.560;9.714;2023-07-24T01:24:09;18.20;99.90
10249;DHT22;5169;50.560;9.714;2023-07-24T01:26:40;18.30;99.90
10249;DHT22;5169;50.560;9.714;2023-07-24T01:29:05;18.30;99.90
10249;DHT22;5169;50.560;9.714;2023-07-24T01:31:31;18.20;99.90
10249;DHT22;5169;50.560;9.714;2023-07-24T01:33:57;18.20;99.90
10249;DHT22;5169;50.560;9.714;2023-07-24T01:36:22;18.30;99.90
10249;DHT22;5169;50.560;9.714;2023-07-24T01:38:49;18.20;99.90
10249;DHT22;5169;50.560;9.714;2023-07-24T01:41:16;18.20;99.90
10249;DHT22;5169;50.560;9.714;2023-07-24T01:43:43;18.30;99.90
10249;DHT22;5169;50.560;9.714;2023-07-24T01:46:08;18.30;99.90
10249;DHT22;5169;50.560;9.714;2023-07-24T01:48:34;18.40;99.90
10249;DHT22;5169;50.560;9.714;2023-07-24T01:51:00;18.40;99.90
10249;DHT22;5169;50.560;9.714;2023-07-24T01:53:25;18.40;99.90
10249;DHT22;5169;50.560;9.714;2023-07-24T01:55:53;18.40;99.90
10249;DHT22;5169;50.560;9.714;2023-07-24T01:58:18;18.30;99.90
10249;DHT22;5169;50.560;9.714;2023-07-24T02:00:44;18.40;99.90
10249;DHT22;5169;50.560;9.714;2023-07-24T02:03:10;18.40;99.90
10249;DHT22;5169;50.560;9.714;2023-07-24T02:05:35;18.50;99.90
10249;DHT22;5169;50.560;9.714;2023-07-24T02:08:03;18.50;99.90
10249;DHT22;5169;50.560;9.714;2023-07-24T02:10:31;18.50;99.90
10249;DHT22;5169;50.560;9.714;2023-07-24T02:12:59;18.50;99.90
10249;DHT22;5169;50.560;9.714;2023-07-24T02:15:24;18.50;99.90
10249;DHT22;5169;50.560;9.714;2023-07-24T02:17:50;18.40;99.90
10249;DHT22;5169;50.560;9.714;2023-07-24T02:20:15;18.40;99.90
10249;DHT22;5169;50.560;9.714;2023-07-24T02:22:41;18.30;99.90
10249;DHT22;5169;50.560;9.714;2023-07-24T02:25:07;18.30;99.90
10249;DHT22;5169;50.560;9.714;2023-07-24T02:27:32;18.30;99.90
10249;DHT22;5169;50.560;9.714;2023-07-24T02:29:59;18.40;99.90
10249;DHT22;5169;50.560;9.714;2023-07-24T02:32:27;18.50;99.90
10249;DHT22;5169;50.560;9.714;2023-07-24T02:34:53;18.40;99.90
10249;DHT22;5169;50.560;9.714;2023-07-24T02:37:22;18.30;99.90
10249;DHT22;5169;50.560;9.714;2023-07-24T02:39:47;18.20;99.90
10249;DHT22;5169;50.560;9.714;2023-07-24T02:42:13;18.20;99.90
10249;DHT22;5169;50.560;9.714;2023-07-24T02:44:38;18.10;99.90
10249;DHT22;5169;50.560;9.714;2023-07-24T02:47:07;18.00;99.90
10249;DHT22;5169;50.560;9.714;2023-07-24T02:49:34;17.80;99.90
10249;DHT22;5169;50.560;9.714;2023-07-24T02:52:02;17.80;99.90
10249;DHT22;5169;50.560;9.714;2023-07-24T02:54:28;17.70;99.90
10249;DHT22;5169;50.560;9.714;2023-07-24T02:56:53;17.70;99.90
10249;DHT22;5169;50.560;9.714;2023-07-24T02:59:19;17.70;99.90
10249;DHT22;5169;50.560;9.714;2023-07-24T03:01:45;17.70;99.90
10249;DHT22;5169;50.560;9.714;2023-07-24T03:04:10;17.80;99.90
10249;DHT22;5169;50.560;9.714;2023-07-24T03:06:36;17.90;99.90
10249;DHT22;5169;50.560;9.714;2023-07-24T03:09:04;17.90;99.90
10249;DHT22;5169;50.560;9.714;2023-07-24T03:11:32;18.00;99.90
10249;DHT22;5169;50.560;9.714;2023-07-24T03:13:57;18.00;99.90
10249;DHT22;5169;50.560;9.714;2023-07-24T03:16:23;18.00;99.90
10249;DHT22;5169;50.560;9.714;2023-07-24T03:18:53;18.00;99.90
10249;DHT22;5169;50.560;9.714;2023-07-24T03:21:19;18.00;99.90
10249;DHT22;5169;50.560;9.714;2023-07-24T03:23:45;18.00;99.90
10249;DHT22;5169;50.560;9.714;2023-07-24T03:26:11;17.90;99.90
10249;DHT22;5169;50.560;9.714;2023-07-24T03:28:36;18.00;99.90
10249;DHT22;5169;50.560;9.714;2023-07-24T03:31:02;18.00;99.90
10249;DHT22;5169;50.560;9.714;2023-07-24T03:33:30;18.00;99.90
10249;DHT22;5169;50.560;9.714;2023-07-24T03:35:56;18.10;99.90
10249;DHT22;5169;50.560;9.714;2023-07-24T03:38:21;18.10;99.90
10249;DHT22;5169;50.560;9.714;2023-07-24T03:40:47;18.30;99.90
10249;DHT22;5169;50.560;9.714;2023-07-24T03:43:13;18.30;99.90
10249;DHT22;5169;50.560;9.714;2023-07-24T03:45:39;18.30;99.90
10249;DHT22;5169;50.560;9.714;2023-07-24T03:48:05;18.20;99.90
10249;DHT22;5169;50.560;9.714;2023-07-24T03:50:30;18.20;99.90
10249;DHT22;5169;50.560;9.714;2023-07-24T03:52:56;18.10;99.90
10249;DHT22;5169;50.560;9.714;2023-07-24T03:55:21;18.20;99.90
10249;DHT22;5169;50.560;9.714;2023-07-24T03:57:49;18.20;99.90
10249;DHT22;5169;50.560;9.714;2023-07-24T04:00:15;18.10;99.90
10249;DHT22;5169;50.560;9.714;2023-07-24T04:02:41;18.30;99.90
10249;DHT22;5169;50.560;9.714;2023-07-24T04:05:06;18.10;99.90
10249;DHT22;5169;50.560;9.714;2023-07-24T04:07:32;18.10;99.90
10249;DHT22;5169;50.560;9.714;2023-07-24T04:09:58;18.20;99.90
10249;DHT22;5169;50.560;9.714;2023-07-24T04:12:23;18.20;99.90
10249;DHT22;5169;50.560;9.714;2023-07-24T04:14:49;18.20;99.90
10249;DHT22;5169;50.560;9.714;2023-07-24T04:17:15;18.10;99.90
10249;DHT22;5169;50.560;9.714;2023-07-24T04:19:41;18.10;99.90
10249;DHT22;5169;50.560;9.714;2023-07-24T04:22:11;18.10;99.90
10249;DHT22;5169;50.560;9.714;2023-07-24T04:24:37;18.00;99.90
10249;DHT22;5169;50.560;9.714;2023-07-24T04:27:03;18.00;99.90
10249;DHT22;5169;50.560;9.714;2023-07-24T04:29:31;18.00;99.90
10249;DHT22;5169;50.560;9.714;2023-07-24T04:31:58;18.10;99.90
10249;DHT22;5169;50.560;9.714;2023-07-24T04:34:24;18.20;99.90
10249;DHT22;5169;50.560;9.714;2023-07-24T04:36:50;18.30;99.90
10249;DHT22;5169;50.560;9.714;2023-07-24T04:39:17;18.20;99.90
10249;DHT22;5169;50.560;9.714;2023-07-24T04:41:43;18.10;99.90
10249;DHT22;5169;50.560;9.714;2023-07-24T04:44:08;18.20;99.90
10249;DHT22;5169;50.560;9.714;2023-07-24T04:46:34;18.40;99.90
10249;DHT22;5169;50.560;9.714;2023-07-24T04:49:00;18.50;99.90
10249;DHT22;5169;50.560;9.714;2023-07-24T04:51:25;18.60;99.90
10249;DHT22;5169;50.560;9.714;2023-07-24T04:53:53;18.70;99.90
10249;DHT22;5169;50.560;9.714;2023-07-24T04:56:19;18.70;99.90
10249;DHT22;5169;50.560;9.714;2023-07-24T04:58:44;18.60;99.90
10249;DHT22;5169;50.560;9.714;2023-07-24T05:01:10;18.60;99.90
10249;DHT22;5169;50.560;9.714;2023-07-24T05:03:35;18.70;99.90
10249;DHT22;5169;50.560;9.714;2023-07-24T05:06:01;18.80;99.90
10249;DHT22;5169;50.560;9.714;2023-07-24T05:08:26;18.80;99.90
10249;DHT22;5169;50.560;9.714;2023-07-24T05:10:58;18.90;99.90
10249;DHT22;5169;50.560;9.714;2023-07-24T05:13:25;19.20;99.90
10249;DHT22;5169;50.560;9.714;2023-07-24T05:15:50;19.40;99.90
10249;DHT22;5169;50.560;9.714;2023-07-24T05:18:18;19.40;99.90
10249;DHT22;5169;50.560;9.714;2023-07-24T05:20:50;19.70;99.90
10249;DHT22;5169;50.560;9.714;2023-07-24T05:23:19;19.90;99.90
10249;DHT22;5169;50.560;9.714;2023-07-24T05:25:47;20.00;99.90
10249;DHT22;5169;50.560;9.714;2023-07-24T05:28:13;20.30;99.90
10249;DHT22;5169;50.560;9.714;2023-07-24T05:30:41;20.40;99.90
10249;DHT22;5169;50.560;9.714;2023-07-24T05:33:07;20.50;99.90
10249;DHT22;5169;50.560;9.714;2023-07-24T05:35:33;20.50;99.90
10249;DHT22;5169;50.560;9.714;2023-07-24T05:37:58;20.50;99.90
10249;DHT22;5169;50.560;9.714;2023-07-24T05:40:24;20.50;99.90
10249;DHT22;5169;50.560;9.714;2023-07-24T05:42:49;20.50;99.90
10249;DHT22;5169;50.560;9.714;2023-07-24T05:45:15;20.60;99.90
10249;DHT22;5169;50.560;9.714;2023-07-24T05:47:43;20.70;99.90
10249;DHT22;5169;50.560;9.714;2023-07-24T05:50:09;20.60;99.90
10249;DHT22;5169;50.560;9.714;2023-07-24T05:52:35;20.60;99.90
10249;DHT22;5169;50.560;9.714;2023-07-24T05:55:02;20.50;99.90
10249;DHT22;5169;50.560;9.714;2023-07-24T05:57:30;20.50;99.90
10249;DHT22;5169;50.560;9.714;2023-07-24T05:59:56;20.30;99.90
10249;DHT22;5169;50.560;9.714;2023-07-24T06:02:21;20.30;99.90
10249;DHT22;5169;50.560;9.714;2023-07-24T06:04:47;20.30;99.90
10249;DHT22;5169;50.560;9.714;2023-07-24T06:07:12;20.40;99.90
10249;DHT22;5169;50.560;9.714;2023-07-24T06:09:38;20.50;99.90
10249;DHT22;5169;50.560;9.714;2023-07-24T06:12:04;20.60;99.90
10249;DHT22;5169;50.560;9.714;2023-07-24T06:14:29;20.50;99.90
10249;DHT22;5169;50.560;9.714;2023-07-24T06:16:55;20.60;99.90
10249;DHT22;5169;50.560;9.714;2023-07-24T06:19:21;20.60;99.90
10249;DHT22;5169;50.560;9.714;2023-07-24T06:21:46;20.70;99.90
10249;DHT22;5169;50.560;9.714;2023-07-24T06:24:12;20.50;99.90
10249;DHT22;5169;50.560;9.714;2023-07-24T06:26:41;20.50;99.90
10249;DHT22;5169;50.560;9.714;2023-07-24T06:29:09;20.60;99.90
10249;DHT22;5169;50.560;9.714;2023-07-24T06:31:34;20.80;99.90
10249;DHT22;5169;50.560;9.714;2023-07-24T06:34:05;21.00;99.90
10249;DHT22;5169;50.560;9.714;2023-07-24T06:36:30;21.00;99.90
10249;DHT22;5169;50.560;9.714;2023-07-24T06:38:56;21.10;99.90
10249;DHT22;5169;50.560;9.714;2023-07-24T06:41:21;21.20;99.90
10249;DHT22;5169;50.560;9.714;2023-07-24T06:43:51;21.20;99.90
10249;DHT22;5169;50.560;9.714;2023-07-24T06:46:16;21.20;99.90
10249;DHT22;5169;50.560;9.714;2023-07-24T06:48:44;21.30;99.90
10249;DHT22;5169;50.560;9.714;2023-07-24T06:51:12;21.20;99.90
10249;DHT22;5169;50.560;9.714;2023-07-24T06:53:40;21.30;99.90
10249;DHT22;5169;50.560;9.714;2023-07-24T06:56:06;21.30;99.90
10249;DHT22;5169;50.560;9.714;2023-07-24T06:58:31;21.60;99.90
10249;DHT22;5169;50.560;9.714;2023-07-24T07:00:59;21.70;99.90
10249;DHT22;5169;50.560;9.714;2023-07-24T07:03:27;21.80;99.90
10249;DHT22;5169;50.560;9.714;2023-07-24T07:05:58;22.10;99.90
10249;DHT22;5169;50.560;9.714;2023-07-24T07:08:24;22.20;99.90
10249;DHT22;5169;50.560;9.714;2023-07-24T07:10:59;22.20;99.90
10249;DHT22;5169;50.560;9.714;2023-07-24T07:13:27;22.20;99.90
10249;DHT22;5169;50.560;9.714;2023-07-24T07:15:53;22.10;99.90
10249;DHT22;5169;50.560;9.714;2023-07-24T07:18:21;21.90;99.90
10249;DHT22;5169;50.560;9.714;2023-07-24T07:20:48;22.00;99.90
10249;DHT22;5169;50.560;9.714;2023-07-24T07:23:14;22.10;99.90
10249;DHT22;5169;50.560;9.714;2023-07-24T07:25:40;22.10;99.90
10249;DHT22;5169;50.560;9.714;2023-07-24T07:28:05;22.30;99.90
10249;DHT22;5169;50.560;9.714;2023-07-24T07:30:31;22.50;99.90
10249;DHT22;5169;50.560;9.714;2023-07-24T07:32:57;22.70;99.90
10249;DHT22;5169;50.560;9.714;2023-07-24T07:35:25;22.80;99.90
10249;DHT22;5169;50.560;9.714;2023-07-24T07:37:50;23.00;99.90
10249;DHT22;5169;50.560;9.714;2023-07-24T07:40:16;23.00;99.70
10249;DHT22;5169;50.560;9.714;2023-07-24T07:42:44;23.00;99.60
10249;DHT22;5169;50.560;9.714;2023-07-24T07:45:13;23.10;99.80
10249;DHT22;5169;50.560;9.714;2023-07-24T07:47:38;23.20;99.60
10249;DHT22;5169;50.560;9.714;2023-07-24T07:50:04;23.40;99.20
10249;DHT22;5169;50.560;9.714;2023-07-24T07:52:30;23.30;98.80
10249;DHT22;5169;50.560;9.714;2023-07-24T07:54:55;23.40;98.90
10249;DHT22;5169;50.560;9.714;2023-07-24T07:57:21;23.50;99.10
10249;DHT22;5169;50.560;9.714;2023-07-24T07:59:46;23.70;98.30
10249;DHT22;5169;50.560;9.714;2023-07-24T08:02:12;23.70;97.60
10249;DHT22;5169;50.560;9.714;2023-07-24T08:04:38;23.60;98.00
10249;DHT22;5169;50.560;9.714;2023-07-24T08:07:03;23.50;97.80
10249;DHT22;5169;50.560;9.714;2023-07-24T08:09:29;23.70;98.00
10249;DHT22;5169;50.560;9.714;2023-07-24T08:11:55;23.90;97.60
10249;DHT22;5169;50.560;9.714;2023-07-24T08:14:25;24.10;97.50
10249;DHT22;5169;50.560;9.714;2023-07-24T08:16:51;24.40;97.00
10249;DHT22;5169;50.560;9.714;2023-07-24T08:19:18;24.80;96.30
10249;DHT22;5169;50.560;9.714;2023-07-24T08:21:47;25.00;95.80
10249;DHT22;5169;50.560;9.714;2023-07-24T08:24:12;25.30;95.30
10249;DHT22;5169;50.560;9.714;2023-07-24T08:26:38;25.40;94.90
10249;DHT22;5169;50.560;9.714;2023-07-24T08:29:04;25.30;94.70
10249;DHT22;5169;50.560;9.714;2023-07-24T08:31:32;25.10;94.70
10249;DHT22;5169;50.560;9.714;2023-07-24T08:33:58;24.80;95.20
10249;DHT22;5169;50.560;9.714;2023-07-24T08:36:23;24.60;95.10
10249;DHT22;5169;50.560;9.714;2023-07-24T08:38:49;24.50;95.70
10249;DHT22;5169;50.560;9.714;2023-07-24T08:41:15;24.50;95.80
10249;DHT22;5169;50.560;9.714;2023-07-24T08:43:42;24.80;96.00
10249;DHT22;5169;50.560;9.714;2023-07-24T08:46:11;25.20;95.50
10249;DHT22;5169;50.560;9.714;2023-07-24T08:48:39;25.40;94.80
10249;DHT22;5169;50.560;9.714;2023-07-24T08:51:09;25.40;94.90
10249;DHT22;5169;50.560;9.714;2023-07-24T08:53:43;25.70;94.70
10249;DHT22;5169;50.560;9.714;2023-07-24T08:56:11;25.80;94.20
10249;DHT22;5169;50.560;9.714;2023-07-24T08:58:40;26.00;94.20
10249;DHT22;5169;50.560;9.714;2023-07-24T09:01:07;26.00;93.80
10249;DHT22;5169;50.560;9.714;2023-07-24T09:03:35;25.60;94.00
10249;DHT22;5169;50.560;9.714;2023-07-24T09:06:03;25.20;94.60
10249;DHT22;5169;50.560;9.714;2023-07-24T09:10:58;25.20;95.10
10249;DHT22;5169;50.560;9.714;2023-07-24T09:13:23;25.40;95.00
10249;DHT22;5169;50.560;9.714;2023-07-24T09:15:51;25.50;94.90
10249;DHT22;5169;50.560;9.714;2023-07-24T09:18:17;25.50;94.80
10249;DHT22;5169;50.560;9.714;2023-07-24T09:20:44;25.50;94.70
10249;DHT22;5169;50.560;9.714;2023-07-24T09:23:11;25.60;94.40
10249;DHT22;5169;50.560;9.714;2023-07-24T09:25:38;25.70;94.70
10249;DHT22;5169;50.560;9.714;2023-07-24T09:28:14;25.90;94.40
10249;DHT22;5169;50.560;9.714;2023-07-24T09:30:40;25.80;94.40
10249;DHT22;5169;50.560;9.714;2023-07-24T09:33:06;25.50;94.70
10249;DHT22;5169;50.560;9.714;2023-07-24T09:35:32;25.00;94.90
10249;DHT22;5169;50.560;9.714;2023-07-24T09:38:07;24.90;95.40
10249;DHT22;5169;50.560;9.714;2023-07-24T09:40:40;25.00;95.60
10249;DHT22;5169;50.560;9.714;2023-07-24T09:45:45;26.00;94.40
10249;DHT22;5169;50.560;9.714;2023-07-24T09:48:12;26.30;93.40
10249;DHT22;5169;50.560;9.714;2023-07-24T09:50:41;26.40;93.60
10249;DHT22;5169;50.560;9.714;2023-07-24T09:56:05;26.40;93.30
10249;DHT22;5169;50.560;9.714;2023-07-24T09:58:33;26.30;93.60
10249;DHT22;5169;50.560;9.714;2023-07-24T10:01:03;26.10;93.20
10249;DHT22;5169;50.560;9.714;2023-07-24T10:03:54;25.90;93.70
10249;DHT22;5169;50.560;9.714;2023-07-24T10:06:19;26.20;93.40
10249;DHT22;5169;50.560;9.714;2023-07-24T10:08:46;26.00;93.40
10249;DHT22;5169;50.560;9.714;2023-07-24T10:11:14;26.40;93.70
10249;DHT22;5169;50.560;9.714;2023-07-24T10:13:42;26.50;93.10
10249;DHT22;5169;50.560;9.714;2023-07-24T10:16:11;26.60;93.00
10249;DHT22;5169;50.560;9.714;2023-07-24T10:18:45;26.90;93.20
10249;DHT22;5169;50.560;9.714;2023-07-24T10:21:12;27.40;92.20
10249;DHT22;5169;50.560;9.714;2023-07-24T10:23:45;27.40;92.10
10249;DHT22;5169;50.560;9.714;2023-07-24T10:26:14;27.30;91.80
10249;DHT22;5169;50.560;9.714;2023-07-24T10:28:43;26.80;92.50
10249;DHT22;5169;50.560;9.714;2023-07-24T10:31:24;27.00;92.80
10249;DHT22;5169;50.560;9.714;2023-07-24T10:33:52;27.30;92.40
10249;DHT22;5169;50.560;9.714;2023-07-24T10:36:21;27.70;91.60
10249;DHT22;5169;50.560;9.714;2023-07-24T10:38:55;27.80;91.50
10249;DHT22;5169;50.560;9.714;2023-07-24T10:41:22;27.40;91.80
10249;DHT22;5169;50.560;9.714;2023-07-24T10:43:49;27.10;92.30
10249;DHT22;5169;50.560;9.714;2023-07-24T10:46:16;27.10;92.40
10249;DHT22;5169;50.560;9.714;2023-07-24T10:48:53;26.60;92.50
10249;DHT22;5169;50.560;9.714;2023-07-24T10:51:19;26.50;92.90
10249;DHT22;5169;50.560;9.714;2023-07-24T10:53:47;26.20;93.30
10249;DHT22;5169;50.560;9.714;2023-07-24T10:56:14;25.90;93.60
10249;DHT22;5169;50.560;9.714;2023-07-24T10:58:40;26.00;93.70
10249;DHT22;5169;50.560;9.714;2023-07-24T11:01:07;26.30;93.90
10249;DHT22;5169;50.560;9.714;2023-07-24T11:03:35;26.70;93.20
10249;DHT22;5169;50.560;9.714;2023-07-24T11:06:02;26.70;92.90
10249;DHT22;5169;50.560;9.714;2023-07-24T11:08:28;26.60;93.20
10249;DHT22;5169;50.560;9.714;2023-07-24T11:10:58;26.80;93.20
10249;DHT22;5169;50.560;9.714;2023-07-24T11:13:25;27.10;92.00
10249;DHT22;5169;50.560;9.714;2023-07-24T11:15:52;27.70;91.90
10249;DHT22;5169;50.560;9.714;2023-07-24T11:18:21;28.10;91.10
10249;DHT22;5169;50.560;9.714;2023-07-24T11:20:48;28.00;90.40
10249;DHT22;5169;50.560;9.714;2023-07-24T11:23:15;27.70;90.40
10249;DHT22;5169;50.560;9.714;2023-07-24T11:25:41;27.50;90.40
10249;DHT22;5169;50.560;9.714;2023-07-24T11:28:08;27.40;90.90
10249;DHT22;5169;50.560;9.714;2023-07-24T11:30:36;27.30;90.60
10249;DHT22;5169;50.560;9.714;2023-07-24T11:33:06;27.60;90.20
10249;DHT22;5169;50.560;9.714;2023-07-24T11:35:36;27.60;90.40
10249;DHT22;5169;50.560;9.714;2023-07-24T11:38:03;27.60;90.30
10249;DHT22;5169;50.560;9.714;2023-07-24T11:40:40;27.70;90.30
10249;DHT22;5169;50.560;9.714;2023-07-24T11:43:18;28.20;90.00
10249;DHT22;5169;50.560;9.714;2023-07-24T11:45:45;28.80;85.50
10249;DHT22;5169;50.560;9.714;2023-07-24T11:48:17;28.60;85.30
10249;DHT22;5169;50.560;9.714;2023-07-24T11:50:47;28.30;85.40
10249;DHT22;5169;50.560;9.714;2023-07-24T11:55:50;28.40;85.50
10249;DHT22;5169;50.560;9.714;2023-07-24T11:58:17;28.70;85.40
10249;DHT22;5169;50.560;9.714;2023-07-24T12:00:45;28.50;85.60
10249;DHT22;5169;50.560;9.714;2023-07-24T12:03:11;28.20;84.90
10249;DHT22;5169;50.560;9.714;2023-07-24T12:05:41;27.90;85.50
10249;DHT22;5169;50.560;9.714;2023-07-24T12:08:07;27.90;86.10
10249;DHT22;5169;50.560;9.714;2023-07-24T12:10:36;28.10;86.90
10249;DHT22;5169;50.560;9.714;2023-07-24T12:13:02;28.20;85.70
10249;DHT22;5169;50.560;9.714;2023-07-24T12:15:28;28.20;85.60
10249;DHT22;5169;50.560;9.714;2023-07-24T12:17:54;28.30;85.30
10249;DHT22;5169;50.560;9.714;2023-07-24T12:20:20;28.40;83.40
10249;DHT22;5169;50.560;9.714;2023-07-24T12:22:45;28.20;83.60
10249;DHT22;5169;50.560;9.714;2023-07-24T12:25:12;28.20;83.40
10249;DHT22;5169;50.560;9.714;2023-07-24T12:27:40;27.80;82.90
10249;DHT22;5169;50.560;9.714;2023-07-24T12:30:07;27.20;83.40
10249;DHT22;5169;50.560;9.714;2023-07-24T12:32:33;26.80;85.30
10249;DHT22;5169;50.560;9.714;2023-07-24T12:35:01;26.60;86.20
10249;DHT22;5169;50.560;9.714;2023-07-24T12:37:29;26.50;86.10
10249;DHT22;5169;50.560;9.714;2023-07-24T12:39:54;26.30;86.40
10249;DHT22;5169;50.560;9.714;2023-07-24T12:42:20;26.50;86.60
10249;DHT22;5169;50.560;9.714;2023-07-24T12:44:48;26.60;87.20
10249;DHT22;5169;50.560;9.714;2023-07-24T12:47:17;26.80;86.90
10249;DHT22;5169;50.560;9.714;2023-07-24T12:49:42;26.80;87.00
10249;DHT22;5169;50.560;9.714;2023-07-24T12:52:08;26.60;86.90
10249;DHT22;5169;50.560;9.714;2023-07-24T12:54:34;26.60;87.80
10249;DHT22;5169;50.560;9.714;2023-07-24T12:57:01;26.70;87.80
10249;DHT22;5169;50.560;9.714;2023-07-24T12:59:27;26.70;88.20
10249;DHT22;5169;50.560;9.714;2023-07-24T13:01:55;26.50;88.80
10249;DHT22;5169;50.560;9.714;2023-07-24T13:04:23;26.50;90.00
10249;DHT22;5169;50.560;9.714;2023-07-24T13:06:49;26.80;89.00
10249;DHT22;5169;50.560;9.714;2023-07-24T13:09:19;26.80;89.00
10249;DHT22;5169;50.560;9.714;2023-07-24T13:11:47;26.70;88.90
10249;DHT22;5169;50.560;9.714;2023-07-24T13:14:16;26.70;89.10
10249;DHT22;5169;50.560;9.714;2023-07-24T13:16:44;26.40;89.30
10249;DHT22;5169;50.560;9.714;2023-07-24T13:19:14;26.20;90.10
10249;DHT22;5169;50.560;9.714;2023-07-24T13:21:39;26.20;90.10
10249;DHT22;5169;50.560;9.714;2023-07-24T13:24:09;26.20;90.00
10249;DHT22;5169;50.560;9.714;2023-07-24T13:26:34;26.40;89.60
10249;DHT22;5169;50.560;9.714;2023-07-24T13:29:00;26.70;89.30
10249;DHT22;5169;50.560;9.714;2023-07-24T13:31:25;26.90;88.70
10249;DHT22;5169;50.560;9.714;2023-07-24T13:33:53;27.10;88.20
10249;DHT22;5169;50.560;9.714;2023-07-24T13:36:19;26.80;88.50
10249;DHT22;5169;50.560;9.714;2023-07-24T13:38:46;26.60;90.00
10249;DHT22;5169;50.560;9.714;2023-07-24T13:41:13;26.40;90.50
10249;DHT22;5169;50.560;9.714;2023-07-24T13:43:38;26.10;90.90
10249;DHT22;5169;50.560;9.714;2023-07-24T13:46:04;26.10;91.10
10249;DHT22;5169;50.560;9.714;2023-07-24T13:48:33;26.30;90.90
10249;DHT22;5169;50.560;9.714;2023-07-24T13:51:01;26.40;90.90
10249;DHT22;5169;50.560;9.714;2023-07-24T13:53:27;26.30;91.00
10249;DHT22;5169;50.560;9.714;2023-07-24T13:55:53;26.40;91.00
10249;DHT22;5169;50.560;9.714;2023-07-24T13:58:21;26.50;91.10
10249;DHT22;5169;50.560;9.714;2023-07-24T14:00:47;26.40;91.20
10249;DHT22;5169;50.560;9.714;2023-07-24T14:03:12;26.20;91.40
10249;DHT22;5169;50.560;9.714;2023-07-24T14:05:38;25.90;91.90
10249;DHT22;5169;50.560;9.714;2023-07-24T14:08:04;25.80;92.30
10249;DHT22;5169;50.560;9.714;2023-07-24T14:10:30;25.80;92.50
10249;DHT22;5169;50.560;9.714;2023-07-24T14:12:56;25.80;92.60
10249;DHT22;5169;50.560;9.714;2023-07-24T14:15:21;26.10;92.80
10249;DHT22;5169;50.560;9.714;2023-07-24T14:17:49;26.20;92.60
10249;DHT22;5169;50.560;9.714;2023-07-24T14:20:17;26.20;92.50
10249;DHT22;5169;50.560;9.714;2023-07-24T14:22:44;26.20;92.90
10249;DHT22;5169;50.560;9.714;2023-07-24T14:25:10;26.20;92.60
10249;DHT22;5169;50.560;9.714;2023-07-24T14:27:35;26.20;92.60
10249;DHT22;5169;50.560;9.714;2023-07-24T14:30:04;26.30;92.60
10249;DHT22;5169;50.560;9.714;2023-07-24T14:32:29;26.30;92.50
10249;DHT22;5169;50.560;9.714;2023-07-24T14:34:55;26.30;92.70
10249;DHT22;5169;50.560;9.714;2023-07-24T14:37:21;26.30;92.20
10249;DHT22;5169;50.560;9.714;2023-07-24T14:39:46;26.10;92.50
10249;DHT22;5169;50.560;9.714;2023-07-24T14:42:12;26.00;92.60
10249;DHT22;5169;50.560;9.714;2023-07-24T14:44:38;26.10;92.60
10249;DHT22;5169;50.560;9.714;2023-07-24T14:47:04;26.10;92.20
10249;DHT22;5169;50.560;9.714;2023-07-24T14:49:30;26.10;92.30
10249;DHT22;5169;50.560;9.714;2023-07-24T14:51:55;26.00;91.70
10249;DHT22;5169;50.560;9.714;2023-07-24T14:54:23;26.00;90.80
10249;DHT22;5169;50.560;9.714;2023-07-24T14:56:52;25.80;90.60
10249;DHT22;5169;50.560;9.714;2023-07-24T14:59:17;25.80;90.90
10249;DHT22;5169;50.560;9.714;2023-07-24T15:01:43;25.80;90.50
10249;DHT22;5169;50.560;9.714;2023-07-24T15:04:10;25.70;90.60
10249;DHT22;5169;50.560;9.714;2023-07-24T15:06:38;25.50;90.70
10249;DHT22;5169;50.560;9.714;2023-07-24T15:09:04;25.40;91.30
10249;DHT22;5169;50.560;9.714;2023-07-24T15:11:29;25.40;91.70
10249;DHT22;5169;50.560;9.714;2023-07-24T15:13:55;25.40;91.90
10249;DHT22;5169;50.560;9.714;2023-07-24T15:16:21;25.20;93.40
10249;DHT22;5169;50.560;9.714;2023-07-24T15:18:46;25.00;96.80
10249;DHT22;5169;50.560;9.714;2023-07-24T15:21:13;24.80;95.80
10249;DHT22;5169;50.560;9.714;2023-07-24T15:23:38;24.70;96.50
10249;DHT22;5169;50.560;9.714;2023-07-24T15:26:04;24.50;96.70
10249;DHT22;5169;50.560;9.714;2023-07-24T15:28:30;24.20;96.50
10249;DHT22;5169;50.560;9.714;2023-07-24T15:30:55;24.10;96.90
10249;DHT22;5169;50.560;9.714;2023-07-24T15:33:21;23.80;99.50
10249;DHT22;5169;50.560;9.714;2023-07-24T15:35:49;22.30;99.90
10249;DHT22;5169;50.560;9.714;2023-07-24T15:38:15;20.10;99.90
10249;DHT22;5169;50.560;9.714;2023-07-24T15:40:41;19.20;99.90
10249;DHT22;5169;50.560;9.714;2023-07-24T15:43:07;18.80;99.90
10249;DHT22;5169;50.560;9.714;2023-07-24T15:45:35;18.80;99.90
10249;DHT22;5169;50.560;9.714;2023-07-24T15:48:03;18.70;99.90
10249;DHT22;5169;50.560;9.714;2023-07-24T15:50:33;18.70;99.90
10249;DHT22;5169;50.560;9.714;2023-07-24T15:53:01;18.70;99.90
10249;DHT22;5169;50.560;9.714;2023-07-24T15:55:27;18.50;99.90